Latest Weather Observations for Ferny Creek

IDV60901

Issued at 8:11 pm EST Wednesday 27 May 2015 (issued every 10 minutes, with the page automatically refreshed every 10 minutes)

About weather observations | Map of Melbourne area stations | Latest observations for Melbourne area | Other Formats
Station Details ID: 086266 Name: FERNY CREEK Lat: -37.87 Lon: 145.35 Height: 512.9 m
Data from the previous 72 hours. | See also: Recent months at Ferny Creek
Date/Time
EST
Tmp

°C
App
Tmp
°C
Dew
Point
°C
Rel
Hum
%
Delta-T

°C
Wind Press
QNH
hPa
Press
MSL
hPa
Rain
since
9 am
mm
Dir
 
Spd
km/h
Gust
km/h
Spd
kts
Gust
kts
27/08:00pm 11.3 10.1 8.0 80 1.7 NNE 4 9 2 5 1019.5 1019.6 0.0
27/07:30pm 10.9 9.2 7.4 79 1.7 NNE 6 11 3 6 1019.6 1019.7 0.0
27/07:00pm 11.2 9.5 7.5 78 1.8 N 6 19 3 10 1019.6 1019.7 0.0
27/06:30pm 11.4 10.2 7.9 79 1.8 N 4 9 2 5 1019.4 1019.5 0.0
27/06:00pm 11.4 9.8 7.9 79 1.7 N 6 13 3 7 1019.2 1019.3 0.0
27/05:30pm 11.3 10.1 8.0 80 1.7 N 4 13 2 7 1018.9 1019.0 0.0
27/05:00pm 11.9 10.2 8.2 78 1.9 N 7 13 4 7 1018.6 1018.8 0.0
27/04:30pm 12.3 10.8 8.4 77 2.0 N 6 11 3 6 1018.4 1018.6 0.0
27/04:00pm 13.3 11.6 8.4 72 2.5 N 7 22 4 12 1018.4 1018.6 0.0
27/03:30pm 13.6 11.9 8.4 71 2.7 N 7 13 4 7 1018.4 1018.6 0.0
27/03:00pm 13.4 11.7 8.3 71 2.6 N 7 15 4 8 1018.4 1018.6 0.0
27/02:30pm 13.8 12.2 8.8 72 2.6 N 7 19 4 10 1018.4 1018.6 0.0
27/02:00pm 13.1 11.5 8.2 72 2.5 N 6 15 3 8 1018.6 1018.8 0.0
27/01:30pm 12.0 9.8 7.9 76 2.1 N 9 30 5 16 1018.9 1019.0 0.0
27/01:00pm 11.2 8.2 7.5 78 1.8 NNE 13 32 7 17 1019.1 1019.2 0.0
27/12:30pm 10.9 8.6 7.6 80 1.6 NNE 9 26 5 14 1019.8 1019.9 0.0
27/12:00pm 11.4 9.4 7.3 76 2.0 N 7 17 4 9 1020.3 1020.5 0.0
27/11:30am 12.0 9.6 7.1 72 2.4 N 9 19 5 10 1020.6 1020.8 0.0
27/11:00am 12.1 9.7 7.0 71 2.5 N 9 22 5 12 1021.1 1021.2 0.0
27/10:30am 11.8 9.6 6.3 69 2.7 N 7 15 4 8 1021.2 1021.3 0.0
27/10:00am 11.7 9.2 6.4 70 2.6 N 9 20 5 11 1021.1 1021.2 0.0
27/09:30am 11.4 9.1 5.9 69 2.6 N 7 15 4 8 1021.2 1021.3 0.0
27/09:00am 11.1 8.8 5.6 69 2.6 N 7 30 4 16 1021.1 1021.2 0.0
27/08:30am 11.0 7.8 5.3 68 2.7 N 11 24 6 13 1021.1 1021.2 0.0
27/08:00am 10.5 7.3 5.3 70 2.4 NNE 11 26 6 14 1020.8 1021.0 0.0
27/07:30am 10.3 7.5 5.3 71 2.3 NNE 9 22 5 12 1021.0 1021.1 0.0
27/07:00am 10.2 7.5 5.6 73 2.2 NNE 9 20 5 11 1020.7 1020.9 0.0
27/06:30am 9.4 7.2 6.1 80 1.6 NNE 7 20 4 11 1020.7 1020.9 0.0
27/06:00am 10.3 8.1 5.3 71 2.3 NNW 6 15 3 8 1021.2 1021.3 0.0
27/05:30am 10.3 7.5 5.1 70 2.4 N 9 26 5 14 1021.1 1021.2 0.0
27/05:00am 10.3 7.5 5.1 70 2.4 N 9 24 5 13 1021.1 1021.2 0.0
27/04:30am 10.4 8.0 5.2 70 2.4 N 7 19 4 10 1021.3 1021.4 0.0
27/04:00am 10.3 7.9 5.3 71 2.3 N 7 19 4 10 1021.3 1021.4 0.0
27/03:30am 10.2 8.0 5.2 71 2.3 N 6 15 3 8 1021.5 1021.6 0.0
27/03:00am 10.4 8.2 5.2 70 2.4 N 6 13 3 7 1021.9 1022.1 0.0
27/02:30am 10.5 8.3 5.3 70 2.4 N 6 11 3 6 1022.2 1022.4 0.0
27/02:00am 10.4 8.2 5.2 70 2.4 NNE 6 20 3 11 1022.2 1022.4 0.0
27/01:30am 10.4 8.0 5.2 70 2.4 N 7 19 4 10 1022.5 1022.7 0.0
27/01:00am 10.1 7.3 5.1 71 2.3 NNE 9 19 5 10 1022.6 1022.8 0.0
27/12:30am 10.1 7.9 5.1 71 2.3 N 6 15 3 8 1023.1 1023.2 0.0
27/12:00am 10.2 7.4 5.2 71 2.3 NNE 9 20 5 11 1023.6 1023.8 0.0
 
Date/Time
EST
Tmp

°C
App
Tmp
°C
Dew
Point
°C
Rel
Hum
%
Delta-T

°C
Wind Press
QNH
hPa
Press
MSL
hPa
Rain
since
9 am
mm
Dir
 
Spd
km/h
Gust
km/h
Spd
kts
Gust
kts
26/11:30pm 10.2 7.4 5.0 70 2.4 NNE 9 24 5 13 1023.8 1024.0 0.0
26/11:00pm 10.3 7.5 5.1 70 2.4 N 9 20 5 11 1023.8 1024.0 0.0
26/10:30pm 10.3 7.9 5.1 70 2.4 N 7 20 4 11 1023.9 1024.1 0.0
26/10:00pm 10.2 7.7 5.0 70 2.4 NNE 7 19 4 10 1024.1 1024.3 0.0
26/09:30pm 10.6 8.2 5.2 69 2.5 N 7 17 4 9 1024.1 1024.3 0.0
26/09:00pm 10.4 8.2 5.2 70 2.4 N 6 19 3 10 1024.2 1024.4 0.0
26/08:30pm 10.5 8.3 5.5 71 2.4 N 6 13 3 7 1024.3 1024.5 0.0
26/08:00pm 10.2 8.4 5.4 72 2.2 N 4 9 2 5 1024.7 1024.9 0.0
26/07:30pm 10.2 8.4 5.6 73 2.2 N 4 11 2 6 1025.0 1025.3 0.0
26/07:00pm 10.6 8.9 5.8 72 2.3 NNW 4 9 2 5 1025.2 1025.4 0.0
26/06:30pm 10.6 9.2 5.6 71 2.4 NNW 2 7 1 4 1025.2 1025.4 0.0
26/06:00pm 9.9 8.5 5.7 75 2.0 NE 2 7 1 4 1024.8 1025.0 0.0
26/05:30pm 10.2 8.4 5.6 73 2.2 NNE 4 11 2 6 1025.0 1025.3 0.0
26/05:00pm 10.2 8.4 5.6 73 2.2 N 4 7 2 4 1025.3 1025.5 0.0
26/04:30pm 10.7 9.0 5.9 72 2.3 N 4 9 2 5 1025.4 1025.6 0.0
26/04:00pm 10.5 8.8 6.1 74 2.1 NNE 4 6 2 3 1025.6 1025.8 0.0
26/03:30pm 10.8 9.5 6.2 73 2.2 N 2 4 1 2 1025.6 1025.8 0.0
26/03:00pm 11.1 9.4 5.8 70 2.5 NE 4 6 2 3 1025.6 1025.8 0.0
26/02:30pm 11.7 10.1 6.4 70 2.6 N 4 6 2 3 1025.8 1026.0 0.0
26/02:00pm 11.8 10.2 6.5 70 2.6 NE 4 6 2 3 1026.1 1026.3 0.0
26/01:30pm 11.7 10.2 6.6 71 2.5 N 4 7 2 4 1026.5 1026.7 0.0
26/01:00pm 12.2 11.1 6.7 69 2.7 NNW 2 9 1 5 1026.6 1026.9 0.0
26/12:30pm 12.4 10.9 6.9 69 2.7 N 4 7 2 4 1027.2 1027.4 0.0
26/12:00pm 12.4 10.7 5.8 64 3.2 NNW 4 9 2 5 1027.3 1027.5 0.0
26/11:30am 12.0 10.3 5.9 66 2.9 N 4 7 2 4 1027.9 1028.1 0.0
26/11:00am 11.3 9.6 5.8 69 2.6 N 4 7 2 4 1028.6 1028.9 0.0
26/10:30am 11.3 9.4 5.0 65 3.0 N 4 9 2 5 1029.0 1029.3 0.0
26/10:00am 11.0 9.4 6.2 72 2.3 NNE 4 7 2 4 1029.0 1029.3 0.0
26/09:30am 11.2 9.3 5.1 66 2.9 N 4 6 2 3 1029.0 1029.3 0.0
26/09:00am 10.2 9.0 4.4 67 2.6 CALM 0 6 0 3 1029.3 1029.5 0.0
26/08:30am 10.4 9.3 5.0 69 2.5 CALM 0 0 0 0 1029.1 1029.4 0.0
26/08:00am 8.3 6.1 3.4 71 2.1 NW 4 6 2 3 1029.1 1029.4 0.0
26/07:30am 7.3 5.4 2.6 72 2.0 NW 2 4 1 2 1028.9 1029.2 0.0
26/07:00am 7.3 5.4 2.6 72 2.0 NW 2 4 1 2 1028.8 1029.1 0.0
26/06:30am 7.0 5.0 2.5 73 1.9 NW 2 6 1 3 1028.7 1029.0 0.0
26/06:00am 7.3 4.9 2.4 71 2.1 WNW 4 6 2 3 1028.6 1028.9 0.0
26/05:30am 7.4 4.9 1.7 67 2.4 WNW 4 6 2 3 1028.6 1028.9 0.0
26/05:00am 7.8 5.3 1.6 65 2.6 NW 4 7 2 4 1028.5 1028.8 0.0
26/04:30am 7.8 5.3 1.4 64 2.7 NW 4 6 2 3 1028.7 1029.0 0.0
26/04:00am 7.9 6.1 1.3 63 2.7 CALM 0 0 0 0 1028.7 1029.0 0.0
26/03:30am 8.1 6.4 1.7 64 2.7 CALM 0 4 0 2 1028.6 1028.9 0.0
26/03:00am 8.2 5.7 1.8 64 2.7 NW 4 6 2 3 1028.9 1029.2 0.0
26/02:30am 7.9 5.1 2.2 67 2.4 NW 6 9 3 5 1029.1 1029.4 0.0
26/02:00am 7.8 6.2 2.5 69 2.3 CALM 0 0 0 0 1029.0 1029.3 0.0
26/01:30am 8.3 6.3 2.5 67 2.5 NW 2 4 1 2 1029.1 1029.4 0.0
26/01:00am 8.4 6.1 2.8 68 2.4 NW 4 6 2 3 1029.3 1029.5 0.0
26/12:30am 8.1 5.5 3.2 71 2.2 NW 6 7 3 4 1029.5 1029.7 0.0
26/12:00am 8.3 6.4 2.8 68 2.4 NW 2 4 1 2 1029.7 1029.9 0.0
 
Date/Time
EST
Tmp

°C
App
Tmp
°C
Dew
Point
°C
Rel
Hum
%
Delta-T

°C
Wind Press
QNH
hPa
Press
MSL
hPa
Rain
since
9 am
mm
Dir
 
Spd
km/h
Gust
km/h
Spd
kts
Gust
kts
25/11:30pm 8.4 6.3 2.0 64 2.7 WNW 2 4 1 2 1029.6 1029.8 0.0
25/11:00pm 8.2 6.4 1.4 62 2.8 CALM 0 2 0 1 1029.8 1030.0 0.0
25/10:30pm 8.4 6.3 1.8 63 2.8 NNW 2 4 1 2 1030.0 1030.3 0.0
25/10:00pm 8.2 6.2 2.2 66 2.6 NW 2 2 1 1 1030.2 1030.5 0.0
25/09:30pm 8.0 6.2 3.5 73 2.0 WNW 2 6 1 3 1030.2 1030.5 0.0
25/09:00pm 8.4 6.7 3.8 73 2.0 NW 2 4 1 2 1030.2 1030.5 0.0
25/08:30pm 8.0 6.3 4.0 76 1.8 NNW 2 4 1 2 1030.2 1030.5 0.0
25/08:00pm 8.3 7.0 4.3 76 1.8 CALM 0 6 0 3 1030.2 1030.5 0.0
25/07:30pm 8.4 6.7 4.2 75 1.9 NNW 2 6 1 3 1030.1 1030.4 0.0
25/07:00pm 8.2 6.9 3.9 74 1.9 CALM 0 2 0 1 1029.8 1030.0 0.0
25/06:30pm 8.3 6.6 3.8 73 2.0 NNE 2 6 1 3 1029.6 1029.8 0.0
25/06:00pm 8.1 6.7 3.6 73 2.0 CALM 0 4 0 2 1029.3 1029.5 0.0
25/05:30pm 8.7 7.3 3.5 70 2.3 CALM 0 0 0 0 1029.1 1029.4 0.0
25/05:00pm 8.9 7.7 4.7 75 1.9 CALM 0 0 0 0 1028.8 1029.1 0.0
25/04:30pm 10.0 8.8 4.6 69 2.5 CALM 0 0 0 0 1028.9 1029.2 0.0
25/04:00pm 12.0 10.5 5.0 62 3.3 N 2 4 1 2 1028.9 1029.2 0.0
25/03:30pm 12.6 11.0 4.3 57 3.9 NW 2 6 1 3 1028.9 1029.2 0.0
25/03:00pm 12.9 10.9 4.6 57 3.9 NW 4 7 2 4 1028.9 1029.2 0.0
25/02:30pm 13.1 10.8 5.0 58 3.9 NNW 6 11 3 6 1029.3 1029.5 0.0
25/02:00pm 11.9 9.5 4.4 60 3.5 NW 6 9 3 5 1029.4 1029.6 0.0
25/01:30pm 11.2 9.3 4.9 65 3.0 NNW 4 9 2 5 1029.7 1029.9 0.0
25/01:00pm 10.9 8.6 4.6 65 2.9 NNW 6 11 3 6 1030.0 1030.3 0.0
25/12:30pm 10.6 8.5 4.1 64 3.0 NNW 4 9 2 5 1030.2 1030.5 0.0
25/12:00pm 10.0 8.0 4.6 69 2.5 NW 4 7 2 4 1030.6 1030.9 0.0
25/11:30am 10.3 8.7 4.5 67 2.7 N 2 4 1 2 1030.9 1031.2 0.0
25/11:00am 9.9 7.9 4.3 68 2.5 NW 4 9 2 5 1031.2 1031.5 0.0
25/10:30am 10.1 8.1 4.5 68 2.6 NNW 4 7 2 4 1031.5 1031.7 0.0
25/10:00am 10.5 8.7 5.3 70 2.4 NW 4 7 2 4 1031.1 1031.4 0.0
25/09:30am 9.5 7.4 4.1 69 2.5 NW 4 7 2 4 1031.4 1031.6 0.0
25/09:00am 9.4 7.0 4.2 70 2.3 NW 6 9 3 5 1031.4 1031.6 0.0
25/08:30am 8.7 6.2 3.7 71 2.2 NW 6 11 3 6 1031.2 1031.5 0.0
25/08:00am 8.5 6.4 3.8 72 2.1 NW 4 7 2 4 1031.0 1031.3 0.0
25/07:30am 8.3 6.4 3.0 69 2.3 NW 2 6 1 3 1031.0 1031.3 0.0
25/07:00am 8.4 6.2 3.1 69 2.3 NW 4 6 2 3 1030.9 1031.2 0.0
25/06:30am 8.3 6.1 3.2 70 2.2 NW 4 7 2 4 1030.7 1031.0 0.0
25/06:00am 8.6 6.0 3.2 69 2.4 NW 6 11 3 6 1030.4 1030.7 0.0
25/05:30am 8.1 6.7 3.4 72 2.1 CALM 0 2 0 1 1029.7 1029.9 0.0
25/05:00am 8.2 6.4 3.5 72 2.1 NW 2 4 1 2 1029.7 1029.9 0.0
25/04:30am 8.1 6.3 3.4 72 2.1 NNW 2 4 1 2 1029.8 1030.0 0.0
25/04:00am 7.9 6.5 3.4 73 2.0 CALM 0 0 0 0 1029.6 1029.8 0.0
25/03:30am 7.9 6.5 3.4 73 2.0 CALM 0 4 0 2 1030.0 1030.3 0.0
25/03:00am 8.0 6.2 3.3 72 2.0 NNW 2 6 1 3 1030.1 1030.4 0.0
25/02:30am 8.1 5.4 2.8 69 2.3 NW 6 9 3 5 1030.2 1030.5 0.0
25/02:00am 8.2 5.5 2.9 69 2.3 NW 6 13 3 7 1030.2 1030.5 0.0
25/01:30am 8.2 6.3 2.7 68 2.4 NNW 2 6 1 3 1030.1 1030.4 0.0
25/01:00am 8.5 5.7 2.3 65 2.7 NNW 6 11 3 6 1030.2 1030.5 0.0
25/12:30am 8.6 6.1 1.5 61 3.0 NNW 4 9 2 5 1030.3 1030.6 0.0
25/12:00am 8.3 5.7 1.2 61 3.0 N 4 9 2 5 1030.4 1030.7 0.0
 
Date/Time
EST
Tmp

°C
App
Tmp
°C
Dew
Point
°C
Rel
Hum
%
Delta-T

°C
Wind Press
QNH
hPa
Press
MSL
hPa
Rain
since
9 am
mm
Dir
 
Spd
km/h
Gust
km/h
Spd
kts
Gust
kts
24/11:30pm 7.9 5.4 1.3 63 2.8 NNW 4 9 2 5 1030.5 1030.8 0.0
24/11:00pm 7.9 5.4 1.5 64 2.7 NNW 4 9 2 5 1030.6 1030.9 0.0
24/10:30pm 7.3 4.5 1.8 68 2.3 NW 6 13 3 7 1030.6 1030.9 0.0
24/10:00pm 7.5 4.8 2.6 71 2.1 NW 6 11 3 6 1030.6 1030.9 0.0
24/09:30pm 7.5 5.1 2.4 70 2.2 NNW 4 7 2 4 1030.6 1030.9 0.0
24/09:00pm 7.9 5.4 3.6 74 1.9 NNW 6 13 3 7 1030.6 1030.9 0.0
24/08:30pm 8.2 5.7 3.7 73 2.0 NW 6 9 3 5 1030.5 1030.8 0.0

Latest Capital City Observations: Canberra | Sydney | Melbourne | Brisbane | Adelaide | Perth | Hobart | Darwin

Other Formats:

Comma delimited format used in spreadsheet applications
http://www.bom.gov.au/fwo/IDV60901/IDV60901.94872.axf

JavaScript Object Notation format (JSON) in row-major order
http://www.bom.gov.au/fwo/IDV60901/IDV60901.94872.json